Kennetcook, Canada
Current Conditions -  °F | °C
As of 6:38 AM on Friday 24 Oct 2014 (Local Time) from CYHZ Reporting Station
Overcast Overcast  
Wind Chill: 12°   Ceiling: 500
Heat Index: 12°   Visibility: 8mi
Dew Point: 11°   Wind: 10mph
Humidity: 94%   Direction: 50°NE
Pressure: 29.6"   Gusts: NA
Location:  45.18°N, 63.72°W
Report Text: CYHZ 240938Z 05009KT 8SM BKN005 OVC025 12/11 A2960 RMK SF7SC1 SLP025 DENSITY ALT 500FT
Loading
Personal Weather Stations






























Interactive Weather Map
Tropical Storm Tracking
New forecast layout! Learn more

10-Day Weather Forecast

Advertisements
Track Severe Weather on mobile